sensor_id;sensor_type;location;lat;lon;timestamp;P1;durP1;ratioP1;P2;durP2;ratioP2
78873;SDS011;68250;43.514;1.494;2023-07-13T00:01:31;4.32;;;2.10;;
78873;SDS011;68250;43.514;1.494;2023-07-13T00:03:57;5.37;;;2.37;;
78873;SDS011;68250;43.514;1.494;2023-07-13T00:06:23;5.18;;;2.08;;
78873;SDS011;68250;43.514;1.494;2023-07-13T00:08:49;5.35;;;2.20;;
78873;SDS011;68250;43.514;1.494;2023-07-13T00:11:15;4.60;;;2.23;;
78873;SDS011;68250;43.514;1.494;2023-07-13T00:13:42;6.18;;;2.20;;
78873;SDS011;68250;43.514;1.494;2023-07-13T00:16:08;7.72;;;2.20;;
78873;SDS011;68250;43.514;1.494;2023-07-13T00:18:34;6.10;;;2.42;;
78873;SDS011;68250;43.514;1.494;2023-07-13T00:21:00;5.43;;;2.37;;
78873;SDS011;68250;43.514;1.494;2023-07-13T00:23:39;5.80;;;2.00;;
78873;SDS011;68250;43.514;1.494;2023-07-13T00:26:06;6.00;;;2.28;;
78873;SDS011;68250;43.514;1.494;2023-07-13T00:28:33;4.82;;;2.25;;
78873;SDS011;68250;43.514;1.494;2023-07-13T00:30:59;5.13;;;2.17;;
78873;SDS011;68250;43.514;1.494;2023-07-13T00:33:26;4.93;;;2.30;;
78873;SDS011;68250;43.514;1.494;2023-07-13T00:35:53;5.75;;;2.00;;
78873;SDS011;68250;43.514;1.494;2023-07-13T00:38:22;4.65;;;2.20;;
78873;SDS011;68250;43.514;1.494;2023-07-13T00:40:49;4.65;;;2.20;;
78873;SDS011;68250;43.514;1.494;2023-07-13T00:43:16;6.40;;;2.17;;
78873;SDS011;68250;43.514;1.494;2023-07-13T00:48:08;5.73;;;2.30;;
78873;SDS011;68250;43.514;1.494;2023-07-13T00:50:35;6.15;;;2.50;;
78873;SDS011;68250;43.514;1.494;2023-07-13T00:53:00;4.73;;;1.90;;
78873;SDS011;68250;43.514;1.494;2023-07-13T00:55:26;4.95;;;2.10;;
78873;SDS011;68250;43.514;1.494;2023-07-13T00:57:52;8.20;;;2.07;;
78873;SDS011;68250;43.514;1.494;2023-07-13T01:00:18;5.03;;;1.98;;
78873;SDS011;68250;43.514;1.494;2023-07-13T01:02:46;4.28;;;2.10;;
78873;SDS011;68250;43.514;1.494;2023-07-13T01:05:13;5.97;;;2.45;;
78873;SDS011;68250;43.514;1.494;2023-07-13T01:07:41;5.67;;;2.37;;
78873;SDS011;68250;43.514;1.494;2023-07-13T01:12:54;4.60;;;2.03;;
78873;SDS011;68250;43.514;1.494;2023-07-13T01:18:13;6.03;;;2.30;;
78873;SDS011;68250;43.514;1.494;2023-07-13T01:20:56;5.38;;;2.30;;
78873;SDS011;68250;43.514;1.494;2023-07-13T01:23:24;6.10;;;2.35;;
78873;SDS011;68250;43.514;1.494;2023-07-13T01:25:50;4.90;;;2.38;;
78873;SDS011;68250;43.514;1.494;2023-07-13T01:28:17;6.60;;;2.17;;
78873;SDS011;68250;43.514;1.494;2023-07-13T01:30:43;5.83;;;2.40;;
78873;SDS011;68250;43.514;1.494;2023-07-13T01:33:11;4.82;;;2.10;;
78873;SDS011;68250;43.514;1.494;2023-07-13T01:35:38;5.85;;;2.53;;
78873;SDS011;68250;43.514;1.494;2023-07-13T01:38:04;5.20;;;2.33;;
78873;SDS011;68250;43.514;1.494;2023-07-13T01:40:30;5.37;;;2.20;;
78873;SDS011;68250;43.514;1.494;2023-07-13T01:42:56;5.20;;;2.30;;
78873;SDS011;68250;43.514;1.494;2023-07-13T01:45:22;5.32;;;2.30;;
78873;SDS011;68250;43.514;1.494;2023-07-13T01:47:48;5.00;;;2.13;;
78873;SDS011;68250;43.514;1.494;2023-07-13T01:50:13;5.13;;;2.33;;
78873;SDS011;68250;43.514;1.494;2023-07-13T01:52:39;8.20;;;2.33;;
78873;SDS011;68250;43.514;1.494;2023-07-13T01:55:05;5.57;;;2.07;;
78873;SDS011;68250;43.514;1.494;2023-07-13T01:57:31;5.15;;;1.83;;
78873;SDS011;68250;43.514;1.494;2023-07-13T01:59:57;5.67;;;1.87;;
78873;SDS011;68250;43.514;1.494;2023-07-13T02:02:22;6.13;;;2.03;;
78873;SDS011;68250;43.514;1.494;2023-07-13T02:04:48;4.00;;;1.87;;
78873;SDS011;68250;43.514;1.494;2023-07-13T02:07:13;6.43;;;2.30;;
78873;SDS011;68250;43.514;1.494;2023-07-13T02:09:40;5.93;;;2.17;;
78873;SDS011;68250;43.514;1.494;2023-07-13T02:12:07;4.22;;;2.10;;
78873;SDS011;68250;43.514;1.494;2023-07-13T02:14:33;6.13;;;1.85;;
78873;SDS011;68250;43.514;1.494;2023-07-13T02:16:59;5.87;;;2.07;;
78873;SDS011;68250;43.514;1.494;2023-07-13T02:19:24;4.53;;;1.80;;
78873;SDS011;68250;43.514;1.494;2023-07-13T02:21:50;5.77;;;2.37;;
78873;SDS011;68250;43.514;1.494;2023-07-13T02:24:16;6.63;;;2.08;;
78873;SDS011;68250;43.514;1.494;2023-07-13T02:26:43;7.40;;;2.08;;
78873;SDS011;68250;43.514;1.494;2023-07-13T02:29:09;6.13;;;1.97;;
78873;SDS011;68250;43.514;1.494;2023-07-13T02:31:35;7.68;;;2.10;;
78873;SDS011;68250;43.514;1.494;2023-07-13T02:34:01;7.90;;;2.15;;
78873;SDS011;68250;43.514;1.494;2023-07-13T02:36:28;4.65;;;1.92;;
78873;SDS011;68250;43.514;1.494;2023-07-13T02:38:53;5.50;;;2.20;;
78873;SDS011;68250;43.514;1.494;2023-07-13T02:41:19;5.75;;;2.10;;
78873;SDS011;68250;43.514;1.494;2023-07-13T02:43:44;7.23;;;1.90;;
78873;SDS011;68250;43.514;1.494;2023-07-13T02:46:10;5.43;;;2.20;;
78873;SDS011;68250;43.514;1.494;2023-07-13T02:48:36;8.27;;;2.42;;
78873;SDS011;68250;43.514;1.494;2023-07-13T02:51:03;6.72;;;2.20;;
78873;SDS011;68250;43.514;1.494;2023-07-13T02:53:29;6.80;;;2.10;;
78873;SDS011;68250;43.514;1.494;2023-07-13T02:55:54;5.35;;;2.00;;
78873;SDS011;68250;43.514;1.494;2023-07-13T02:58:20;4.63;;;1.97;;
78873;SDS011;68250;43.514;1.494;2023-07-13T03:00:46;6.70;;;2.07;;
78873;SDS011;68250;43.514;1.494;2023-07-13T03:03:13;6.72;;;2.10;;
78873;SDS011;68250;43.514;1.494;2023-07-13T03:05:40;6.78;;;2.20;;
78873;SDS011;68250;43.514;1.494;2023-07-13T03:08:10;5.07;;;1.80;;
78873;SDS011;68250;43.514;1.494;2023-07-13T03:10:36;6.68;;;2.30;;
78873;SDS011;68250;43.514;1.494;2023-07-13T03:13:02;5.90;;;1.95;;
78873;SDS011;68250;43.514;1.494;2023-07-13T03:15:28;6.25;;;2.20;;
78873;SDS011;68250;43.514;1.494;2023-07-13T03:17:53;9.47;;;2.20;;
78873;SDS011;68250;43.514;1.494;2023-07-13T03:20:19;6.63;;;2.40;;
78873;SDS011;68250;43.514;1.494;2023-07-13T03:22:45;6.10;;;1.90;;
78873;SDS011;68250;43.514;1.494;2023-07-13T03:25:10;5.63;;;1.60;;
78873;SDS011;68250;43.514;1.494;2023-07-13T03:27:36;7.97;;;2.13;;
78873;SDS011;68250;43.514;1.494;2023-07-13T03:30:03;5.55;;;1.40;;
78873;SDS011;68250;43.514;1.494;2023-07-13T03:32:29;6.50;;;1.63;;
78873;SDS011;68250;43.514;1.494;2023-07-13T03:34:55;6.55;;;1.58;;
78873;SDS011;68250;43.514;1.494;2023-07-13T03:37:21;8.50;;;1.60;;
78873;SDS011;68250;43.514;1.494;2023-07-13T03:39:46;4.97;;;1.47;;
78873;SDS011;68250;43.514;1.494;2023-07-13T03:42:12;5.90;;;1.60;;
78873;SDS011;68250;43.514;1.494;2023-07-13T03:44:38;6.63;;;2.13;;
78873;SDS011;68250;43.514;1.494;2023-07-13T03:47:04;7.22;;;2.03;;
78873;SDS011;68250;43.514;1.494;2023-07-13T03:49:31;5.30;;;1.50;;
78873;SDS011;68250;43.514;1.494;2023-07-13T03:51:57;6.90;;;1.60;;
78873;SDS011;68250;43.514;1.494;2023-07-13T03:54:22;5.30;;;1.50;;
78873;SDS011;68250;43.514;1.494;2023-07-13T03:56:48;5.73;;;1.77;;
78873;SDS011;68250;43.514;1.494;2023-07-13T03:59:13;7.55;;;2.05;;
78873;SDS011;68250;43.514;1.494;2023-07-13T04:01:39;6.13;;;1.70;;
78873;SDS011;68250;43.514;1.494;2023-07-13T04:04:05;6.40;;;2.15;;
78873;SDS011;68250;43.514;1.494;2023-07-13T04:06:31;7.00;;;1.90;;
78873;SDS011;68250;43.514;1.494;2023-07-13T04:08:58;7.68;;;1.83;;
78873;SDS011;68250;43.514;1.494;2023-07-13T04:11:25;6.20;;;1.83;;
78873;SDS011;68250;43.514;1.494;2023-07-13T04:13:54;5.15;;;1.60;;
78873;SDS011;68250;43.514;1.494;2023-07-13T04:16:20;5.47;;;1.80;;
78873;SDS011;68250;43.514;1.494;2023-07-13T04:18:46;6.45;;;1.65;;
78873;SDS011;68250;43.514;1.494;2023-07-13T04:21:12;6.43;;;1.83;;
78873;SDS011;68250;43.514;1.494;2023-07-13T04:23:39;5.80;;;1.90;;
78873;SDS011;68250;43.514;1.494;2023-07-13T04:26:05;8.60;;;2.03;;
78873;SDS011;68250;43.514;1.494;2023-07-13T04:28:31;7.83;;;2.03;;
78873;SDS011;68250;43.514;1.494;2023-07-13T04:30:57;6.75;;;1.60;;
78873;SDS011;68250;43.514;1.494;2023-07-13T04:33:23;6.57;;;1.70;;
78873;SDS011;68250;43.514;1.494;2023-07-13T04:35:52;6.43;;;1.70;;
78873;SDS011;68250;43.514;1.494;2023-07-13T04:38:26;5.45;;;1.58;;
78873;SDS011;68250;43.514;1.494;2023-07-13T04:40:54;7.07;;;1.80;;
78873;SDS011;68250;43.514;1.494;2023-07-13T04:43:21;4.90;;;1.80;;
78873;SDS011;68250;43.514;1.494;2023-07-13T04:45:47;8.02;;;1.98;;
78873;SDS011;68250;43.514;1.494;2023-07-13T04:48:12;5.87;;;1.80;;
78873;SDS011;68250;43.514;1.494;2023-07-13T04:50:38;7.85;;;1.70;;
78873;SDS011;68250;43.514;1.494;2023-07-13T04:53:04;7.13;;;1.52;;
78873;SDS011;68250;43.514;1.494;2023-07-13T04:55:31;8.75;;;1.95;;
78873;SDS011;68250;43.514;1.494;2023-07-13T04:57:57;6.13;;;1.53;;
78873;SDS011;68250;43.514;1.494;2023-07-13T05:00:26;5.03;;;1.60;;
78873;SDS011;68250;43.514;1.494;2023-07-13T05:02:53;7.60;;;1.70;;
78873;SDS011;68250;43.514;1.494;2023-07-13T05:05:20;5.10;;;1.77;;
78873;SDS011;68250;43.514;1.494;2023-07-13T05:07:45;5.05;;;1.40;;
78873;SDS011;68250;43.514;1.494;2023-07-13T05:10:11;6.87;;;1.50;;
78873;SDS011;68250;43.514;1.494;2023-07-13T05:12:37;10.77;;;2.78;;
78873;SDS011;68250;43.514;1.494;2023-07-13T05:15:02;5.67;;;1.90;;
78873;SDS011;68250;43.514;1.494;2023-07-13T05:17:29;5.32;;;1.25;;
78873;SDS011;68250;43.514;1.494;2023-07-13T05:19:54;5.70;;;1.63;;
78873;SDS011;68250;43.514;1.494;2023-07-13T05:22:20;7.65;;;1.88;;
78873;SDS011;68250;43.514;1.494;2023-07-13T05:24:46;6.37;;;1.60;;
78873;SDS011;68250;43.514;1.494;2023-07-13T05:27:12;5.78;;;1.60;;
78873;SDS011;68250;43.514;1.494;2023-07-13T05:29:38;7.07;;;1.65;;
78873;SDS011;68250;43.514;1.494;2023-07-13T05:32:04;4.57;;;1.50;;
78873;SDS011;68250;43.514;1.494;2023-07-13T05:34:30;6.28;;;1.63;;
78873;SDS011;68250;43.514;1.494;2023-07-13T05:36:55;4.47;;;1.30;;
78873;SDS011;68250;43.514;1.494;2023-07-13T05:39:21;6.82;;;1.63;;
78873;SDS011;68250;43.514;1.494;2023-07-13T05:41:47;7.03;;;1.40;;
78873;SDS011;68250;43.514;1.494;2023-07-13T05:44:13;5.40;;;1.52;;
78873;SDS011;68250;43.514;1.494;2023-07-13T05:46:38;4.07;;;1.27;;
78873;SDS011;68250;43.514;1.494;2023-07-13T05:49:04;5.80;;;1.38;;
78873;SDS011;68250;43.514;1.494;2023-07-13T05:51:29;5.03;;;1.40;;
78873;SDS011;68250;43.514;1.494;2023-07-13T05:53:55;5.10;;;1.33;;
78873;SDS011;68250;43.514;1.494;2023-07-13T05:56:21;6.07;;;1.43;;
78873;SDS011;68250;43.514;1.494;2023-07-13T05:58:48;8.15;;;1.60;;
78873;SDS011;68250;43.514;1.494;2023-07-13T06:01:14;6.15;;;1.73;;
78873;SDS011;68250;43.514;1.494;2023-07-13T06:03:40;4.97;;;1.40;;
78873;SDS011;68250;43.514;1.494;2023-07-13T06:06:07;7.63;;;1.20;;
78873;SDS011;68250;43.514;1.494;2023-07-13T06:08:34;4.85;;;1.40;;
78873;SDS011;68250;43.514;1.494;2023-07-13T06:11:14;6.15;;;1.20;;
78873;SDS011;68250;43.514;1.494;2023-07-13T06:13:41;4.90;;;1.10;;
78873;SDS011;68250;43.514;1.494;2023-07-13T06:16:06;5.38;;;1.10;;
78873;SDS011;68250;43.514;1.494;2023-07-13T06:18:34;6.38;;;1.17;;
78873;SDS011;68250;43.514;1.494;2023-07-13T06:21:01;6.60;;;1.40;;
78873;SDS011;68250;43.514;1.494;2023-07-13T06:23:31;4.57;;;1.00;;
78873;SDS011;68250;43.514;1.494;2023-07-13T06:25:56;5.68;;;1.23;;
78873;SDS011;68250;43.514;1.494;2023-07-13T06:28:22;5.97;;;1.33;;
78873;SDS011;68250;43.514;1.494;2023-07-13T06:30:48;6.68;;;1.30;;
78873;SDS011;68250;43.514;1.494;2023-07-13T06:33:13;5.50;;;1.33;;
78873;SDS011;68250;43.514;1.494;2023-07-13T06:35:39;5.95;;;1.35;;
78873;SDS011;68250;43.514;1.494;2023-07-13T06:38:04;4.60;;;1.17;;
78873;SDS011;68250;43.514;1.494;2023-07-13T06:40:30;3.97;;;1.10;;
78873;SDS011;68250;43.514;1.494;2023-07-13T06:42:56;5.67;;;1.03;;
78873;SDS011;68250;43.514;1.494;2023-07-13T06:45:22;4.68;;;1.20;;
78873;SDS011;68250;43.514;1.494;2023-07-13T06:47:47;5.95;;;0.90;;
78873;SDS011;68250;43.514;1.494;2023-07-13T06:50:14;7.33;;;1.30;;
78873;SDS011;68250;43.514;1.494;2023-07-13T06:52:40;6.18;;;1.30;;
78873;SDS011;68250;43.514;1.494;2023-07-13T06:55:06;6.20;;;1.37;;
78873;SDS011;68250;43.514;1.494;2023-07-13T06:57:32;5.85;;;1.00;;
78873;SDS011;68250;43.514;1.494;2023-07-13T06:59:57;5.70;;;1.40;;
78873;SDS011;68250;43.514;1.494;2023-07-13T07:02:23;5.13;;;1.20;;
78873;SDS011;68250;43.514;1.494;2023-07-13T07:04:49;6.60;;;1.50;;
78873;SDS011;68250;43.514;1.494;2023-07-13T07:07:15;4.07;;;1.30;;
78873;SDS011;68250;43.514;1.494;2023-07-13T07:09:40;4.82;;;1.30;;
78873;SDS011;68250;43.514;1.494;2023-07-13T07:12:06;6.40;;;1.43;;
78873;SDS011;68250;43.514;1.494;2023-07-13T07:14:32;5.03;;;1.20;;
78873;SDS011;68250;43.514;1.494;2023-07-13T07:16:59;6.63;;;1.67;;
78873;SDS011;68250;43.514;1.494;2023-07-13T07:19:25;5.10;;;1.27;;
78873;SDS011;68250;43.514;1.494;2023-07-13T07:21:51;5.32;;;1.17;;
78873;SDS011;68250;43.514;1.494;2023-07-13T07:24:16;5.03;;;1.30;;
78873;SDS011;68250;43.514;1.494;2023-07-13T07:26:42;6.40;;;1.40;;
78873;SDS011;68250;43.514;1.494;2023-07-13T07:29:08;5.63;;;1.10;;
78873;SDS011;68250;43.514;1.494;2023-07-13T07:31:33;4.10;;;1.40;;
78873;SDS011;68250;43.514;1.494;2023-07-13T07:33:59;4.30;;;1.10;;
78873;SDS011;68250;43.514;1.494;2023-07-13T07:36:25;3.95;;;1.20;;
78873;SDS011;68250;43.514;1.494;2023-07-13T07:38:50;5.77;;;1.10;;
78873;SDS011;68250;43.514;1.494;2023-07-13T07:41:16;6.18;;;1.63;;
78873;SDS011;68250;43.514;1.494;2023-07-13T07:43:41;4.90;;;1.17;;
78873;SDS011;68250;43.514;1.494;2023-07-13T07:46:07;5.47;;;1.30;;
78873;SDS011;68250;43.514;1.494;2023-07-13T07:48:33;5.53;;;1.10;;
78873;SDS011;68250;43.514;1.494;2023-07-13T07:50:58;6.43;;;1.10;;
78873;SDS011;68250;43.514;1.494;2023-07-13T07:53:24;5.43;;;1.50;;
78873;SDS011;68250;43.514;1.494;2023-07-13T07:55:50;4.87;;;1.30;;
78873;SDS011;68250;43.514;1.494;2023-07-13T07:58:16;5.63;;;1.48;;
78873;SDS011;68250;43.514;1.494;2023-07-13T08:00:42;6.68;;;1.40;;
78873;SDS011;68250;43.514;1.494;2023-07-13T08:03:07;4.33;;;1.07;;
78873;SDS011;68250;43.514;1.494;2023-07-13T08:05:35;3.70;;;1.00;;
78873;SDS011;68250;43.514;1.494;2023-07-13T08:08:01;5.28;;;1.40;;
78873;SDS011;68250;43.514;1.494;2023-07-13T08:10:27;5.40;;;1.25;;
78873;SDS011;68250;43.514;1.494;2023-07-13T08:12:53;5.00;;;1.10;;
78873;SDS011;68250;43.514;1.494;2023-07-13T08:15:18;4.43;;;1.00;;
78873;SDS011;68250;43.514;1.494;2023-07-13T08:17:46;6.15;;;1.25;;
78873;SDS011;68250;43.514;1.494;2023-07-13T08:20:13;4.90;;;1.10;;
78873;SDS011;68250;43.514;1.494;2023-07-13T08:22:39;6.13;;;1.17;;
78873;SDS011;68250;43.514;1.494;2023-07-13T08:25:04;4.85;;;1.17;;
78873;SDS011;68250;43.514;1.494;2023-07-13T08:27:30;5.77;;;1.30;;
78873;SDS011;68250;43.514;1.494;2023-07-13T08:29:56;4.82;;;1.05;;
78873;SDS011;68250;43.514;1.494;2023-07-13T08:32:22;4.65;;;1.30;;
78873;SDS011;68250;43.514;1.494;2023-07-13T08:34:48;4.07;;;1.20;;
78873;SDS011;68250;43.514;1.494;2023-07-13T08:37:14;5.78;;;1.40;;
78873;SDS011;68250;43.514;1.494;2023-07-13T08:39:40;5.55;;;1.10;;
78873;SDS011;68250;43.514;1.494;2023-07-13T08:47:16;4.70;;;1.23;;
78873;SDS011;68250;43.514;1.494;2023-07-13T08:49:42;6.30;;;1.20;;
78873;SDS011;68250;43.514;1.494;2023-07-13T08:52:12;5.72;;;1.20;;
78873;SDS011;68250;43.514;1.494;2023-07-13T08:54:49;6.25;;;1.50;;
78873;SDS011;68250;43.514;1.494;2023-07-13T08:57:20;3.72;;;1.20;;
78873;SDS011;68250;43.514;1.494;2023-07-13T08:59:47;5.43;;;1.02;;
78873;SDS011;68250;43.514;1.494;2023-07-13T09:05:13;6.05;;;1.10;;
78873;SDS011;68250;43.514;1.494;2023-07-13T09:07:51;5.35;;;1.20;;
78873;SDS011;68250;43.514;1.494;2023-07-13T09:10:32;4.95;;;1.15;;
78873;SDS011;68250;43.514;1.494;2023-07-13T09:15:39;4.88;;;1.23;;
78873;SDS011;68250;43.514;1.494;2023-07-13T09:18:09;5.63;;;1.20;;
78873;SDS011;68250;43.514;1.494;2023-07-13T09:20:37;3.70;;;1.00;;
78873;SDS011;68250;43.514;1.494;2023-07-13T09:23:12;4.15;;;1.02;;
78873;SDS011;68250;43.514;1.494;2023-07-13T09:25:40;4.80;;;0.90;;
78873;SDS011;68250;43.514;1.494;2023-07-13T09:28:11;5.60;;;1.30;;
78873;SDS011;68250;43.514;1.494;2023-07-13T09:33:44;5.43;;;1.50;;
78873;SDS011;68250;43.514;1.494;2023-07-13T09:36:27;5.60;;;1.25;;
78873;SDS011;68250;43.514;1.494;2023-07-13T09:38:59;4.40;;;1.23;;
78873;SDS011;68250;43.514;1.494;2023-07-13T09:41:47;3.70;;;1.05;;
78873;SDS011;68250;43.514;1.494;2023-07-13T09:44:26;4.53;;;1.00;;
78873;SDS011;68250;43.514;1.494;2023-07-13T09:46:56;3.95;;;0.95;;
78873;SDS011;68250;43.514;1.494;2023-07-13T09:49:26;3.83;;;1.00;;
78873;SDS011;68250;43.514;1.494;2023-07-13T09:52:10;3.70;;;1.00;;
78873;SDS011;68250;43.514;1.494;2023-07-13T09:54:43;4.18;;;1.08;;
78873;SDS011;68250;43.514;1.494;2023-07-13T09:57:14;4.70;;;1.00;;
78873;SDS011;68250;43.514;1.494;2023-07-13T09:59:43;5.05;;;1.00;;
78873;SDS011;68250;43.514;1.494;2023-07-13T10:04:56;5.27;;;1.47;;
78873;SDS011;68250;43.514;1.494;2023-07-13T10:07:23;4.18;;;1.10;;
78873;SDS011;68250;43.514;1.494;2023-07-13T10:09:56;5.80;;;1.20;;
78873;SDS011;68250;43.514;1.494;2023-07-13T10:12:26;4.70;;;1.10;;
78873;SDS011;68250;43.514;1.494;2023-07-13T10:14:55;4.32;;;1.00;;
78873;SDS011;68250;43.514;1.494;2023-07-13T10:17:26;4.40;;;0.80;;
78873;SDS011;68250;43.514;1.494;2023-07-13T10:19:59;5.35;;;1.38;;
78873;SDS011;68250;43.514;1.494;2023-07-13T10:22:27;4.32;;;1.20;;
78873;SDS011;68250;43.514;1.494;2023-07-13T10:24:58;4.57;;;1.30;;
78873;SDS011;68250;43.514;1.494;2023-07-13T10:27:30;4.28;;;1.10;;
78873;SDS011;68250;43.514;1.494;2023-07-13T10:30:01;6.37;;;1.27;;
78873;SDS011;68250;43.514;1.494;2023-07-13T10:32:33;5.50;;;1.10;;
78873;SDS011;68250;43.514;1.494;2023-07-13T10:34:59;3.30;;;1.13;;
78873;SDS011;68250;43.514;1.494;2023-07-13T10:37:29;5.28;;;1.20;;
78873;SDS011;68250;43.514;1.494;2023-07-13T10:40:02;4.73;;;1.10;;
78873;SDS011;68250;43.514;1.494;2023-07-13T10:42:30;4.70;;;1.20;;
78873;SDS011;68250;43.514;1.494;2023-07-13T10:44:58;5.30;;;1.85;;
78873;SDS011;68250;43.514;1.494;2023-07-13T10:47:24;5.03;;;1.30;;
78873;SDS011;68250;43.514;1.494;2023-07-13T10:49:50;4.35;;;1.17;;
78873;SDS011;68250;43.514;1.494;2023-07-13T10:52:40;3.95;;;1.40;;
78873;SDS011;68250;43.514;1.494;2023-07-13T10:55:31;4.47;;;1.40;;
78873;SDS011;68250;43.514;1.494;2023-07-13T10:58:01;5.63;;;1.27;;
78873;SDS011;68250;43.514;1.494;2023-07-13T11:00:30;6.03;;;1.63;;
78873;SDS011;68250;43.514;1.494;2023-07-13T11:03:00;6.75;;;1.40;;
78873;SDS011;68250;43.514;1.494;2023-07-13T11:05:30;4.13;;;0.88;;
78873;SDS011;68250;43.514;1.494;2023-07-13T11:08:33;4.50;;;1.10;;
78873;SDS011;68250;43.514;1.494;2023-07-13T11:10:56;4.87;;;1.50;;
78873;SDS011;68250;43.514;1.494;2023-07-13T11:21:33;4.63;;;1.25;;
78873;SDS011;68250;43.514;1.494;2023-07-13T11:24:17;4.65;;;1.38;;
78873;SDS011;68250;43.514;1.494;2023-07-13T11:26:50;6.60;;;1.48;;
78873;SDS011;68250;43.514;1.494;2023-07-13T11:31:42;5.60;;;1.70;;
78873;SDS011;68250;43.514;1.494;2023-07-13T11:34:12;5.93;;;1.50;;
78873;SDS011;68250;43.514;1.494;2023-07-13T11:36:42;4.43;;;1.30;;
78873;SDS011;68250;43.514;1.494;2023-07-13T11:39:19;4.32;;;1.15;;
78873;SDS011;68250;43.514;1.494;2023-07-13T11:41:55;4.30;;;1.20;;
78873;SDS011;68250;43.514;1.494;2023-07-13T11:44:23;4.57;;;1.40;;
78873;SDS011;68250;43.514;1.494;2023-07-13T11:46:51;3.33;;;1.30;;
78873;SDS011;68250;43.514;1.494;2023-07-13T11:49:19;4.87;;;1.20;;
78873;SDS011;68250;43.514;1.494;2023-07-13T11:51:45;5.68;;;1.58;;
78873;SDS011;68250;43.514;1.494;2023-07-13T11:54:16;4.03;;;1.33;;
78873;SDS011;68250;43.514;1.494;2023-07-13T11:57:45;7.35;;;1.70;;
78873;SDS011;68250;43.514;1.494;2023-07-13T11:59:52;6.55;;;1.70;;
78873;SDS011;68250;43.514;1.494;2023-07-13T12:02:26;4.13;;;1.03;;
78873;SDS011;68250;43.514;1.494;2023-07-13T12:04:54;5.65;;;1.30;;
78873;SDS011;68250;43.514;1.494;2023-07-13T12:07:20;5.68;;;1.20;;
78873;SDS011;68250;43.514;1.494;2023-07-13T12:09:45;5.53;;;1.40;;
78873;SDS011;68250;43.514;1.494;2023-07-13T12:12:12;3.80;;;1.20;;
78873;SDS011;68250;43.514;1.494;2023-07-13T12:14:39;5.57;;;1.03;;
78873;SDS011;68250;43.514;1.494;2023-07-13T12:17:09;6.80;;;1.88;;
78873;SDS011;68250;43.514;1.494;2023-07-13T12:19:51;3.80;;;1.40;;
78873;SDS011;68250;43.514;1.494;2023-07-13T12:22:18;7.28;;;1.30;;
78873;SDS011;68250;43.514;1.494;2023-07-13T12:24:45;4.30;;;1.20;;
78873;SDS011;68250;43.514;1.494;2023-07-13T12:27:30;6.03;;;1.17;;
78873;SDS011;68250;43.514;1.494;2023-07-13T12:30:04;5.43;;;1.25;;
78873;SDS011;68250;43.514;1.494;2023-07-13T12:32:40;4.35;;;1.30;;
78873;SDS011;68250;43.514;1.494;2023-07-13T12:35:16;3.80;;;1.27;;
78873;SDS011;68250;43.514;1.494;2023-07-13T12:37:44;5.30;;;1.20;;
78873;SDS011;68250;43.514;1.494;2023-07-13T12:40:18;3.67;;;1.48;;
78873;SDS011;68250;43.514;1.494;2023-07-13T12:42:46;5.78;;;1.30;;
78873;SDS011;68250;43.514;1.494;2023-07-13T12:45:18;5.03;;;1.58;;
78873;SDS011;68250;43.514;1.494;2023-07-13T12:47:46;4.40;;;1.30;;
78873;SDS011;68250;43.514;1.494;2023-07-13T12:50:14;5.82;;;1.55;;
78873;SDS011;68250;43.514;1.494;2023-07-13T12:52:43;5.45;;;1.25;;
78873;SDS011;68250;43.514;1.494;2023-07-13T12:55:14;4.28;;;1.50;;
78873;SDS011;68250;43.514;1.494;2023-07-13T12:58:04;4.88;;;1.70;;
78873;SDS011;68250;43.514;1.494;2023-07-13T13:00:29;6.03;;;1.43;;
78873;SDS011;68250;43.514;1.494;2023-07-13T13:03:04;4.60;;;1.15;;
78873;SDS011;68250;43.514;1.494;2023-07-13T13:05:32;4.45;;;1.23;;
78873;SDS011;68250;43.514;1.494;2023-07-13T13:07:59;6.47;;;1.40;;
78873;SDS011;68250;43.514;1.494;2023-07-13T13:10:25;5.22;;;1.50;;
78873;SDS011;68250;43.514;1.494;2023-07-13T13:12:51;3.97;;;1.17;;
78873;SDS011;68250;43.514;1.494;2023-07-13T13:15:17;4.00;;;1.30;;
78873;SDS011;68250;43.514;1.494;2023-07-13T13:17:43;6.13;;;1.38;;
78873;SDS011;68250;43.514;1.494;2023-07-13T13:20:16;6.43;;;1.30;;
78873;SDS011;68250;43.514;1.494;2023-07-13T13:22:43;4.35;;;1.10;;
78873;SDS011;68250;43.514;1.494;2023-07-13T13:25:12;7.75;;;1.80;;
78873;SDS011;68250;43.514;1.494;2023-07-13T13:27:42;10.65;;;1.63;;
78873;SDS011;68250;43.514;1.494;2023-07-13T13:30:12;4.73;;;1.50;;
78873;SDS011;68250;43.514;1.494;2023-07-13T13:32:41;8.50;;;1.45;;
78873;SDS011;68250;43.514;1.494;2023-07-13T13:35:17;6.68;;;1.30;;
78873;SDS011;68250;43.514;1.494;2023-07-13T13:37:45;5.45;;;1.50;;
78873;SDS011;68250;43.514;1.494;2023-07-13T13:40:15;6.00;;;1.70;;
78873;SDS011;68250;43.514;1.494;2023-07-13T13:42:45;5.37;;;1.50;;
78873;SDS011;68250;43.514;1.494;2023-07-13T13:45:11;5.30;;;1.40;;
78873;SDS011;68250;43.514;1.494;2023-07-13T13:47:43;3.92;;;1.13;;
78873;SDS011;68250;43.514;1.494;2023-07-13T13:50:16;7.00;;;1.30;;
78873;SDS011;68250;43.514;1.494;2023-07-13T13:52:43;7.07;;;1.30;;
78873;SDS011;68250;43.514;1.494;2023-07-13T13:55:16;4.38;;;1.45;;
78873;SDS011;68250;43.514;1.494;2023-07-13T13:57:45;4.47;;;1.30;;
78873;SDS011;68250;43.514;1.494;2023-07-13T14:00:11;5.27;;;1.53;;
78873;SDS011;68250;43.514;1.494;2023-07-13T14:02:40;5.38;;;1.30;;
78873;SDS011;68250;43.514;1.494;2023-07-13T14:05:09;5.93;;;1.40;;
78873;SDS011;68250;43.514;1.494;2023-07-13T14:07:35;7.03;;;1.55;;
78873;SDS011;68250;43.514;1.494;2023-07-13T14:10:01;5.70;;;1.10;;
78873;SDS011;68250;43.514;1.494;2023-07-13T14:12:27;5.00;;;1.30;;
78873;SDS011;68250;43.514;1.494;2023-07-13T14:14:54;4.97;;;1.10;;
78873;SDS011;68250;43.514;1.494;2023-07-13T14:17:24;3.88;;;1.02;;
78873;SDS011;68250;43.514;1.494;2023-07-13T14:19:52;4.47;;;1.30;;
78873;SDS011;68250;43.514;1.494;2023-07-13T14:22:22;5.03;;;1.40;;
78873;SDS011;68250;43.514;1.494;2023-07-13T14:24:49;5.50;;;1.50;;
78873;SDS011;68250;43.514;1.494;2023-07-13T14:27:16;3.70;;;1.37;;
78873;SDS011;68250;43.514;1.494;2023-07-13T14:29:42;3.72;;;1.30;;
78873;SDS011;68250;43.514;1.494;2023-07-13T14:32:11;6.43;;;1.10;;
78873;SDS011;68250;43.514;1.494;2023-07-13T14:34:37;4.38;;;1.20;;
78873;SDS011;68250;43.514;1.494;2023-07-13T14:37:03;4.00;;;1.10;;
78873;SDS011;68250;43.514;1.494;2023-07-13T14:39:30;4.22;;;1.23;;
78873;SDS011;68250;43.514;1.494;2023-07-13T14:41:56;7.63;;;1.30;;
78873;SDS011;68250;43.514;1.494;2023-07-13T14:44:29;3.55;;;1.00;;
78873;SDS011;68250;43.514;1.494;2023-07-13T14:46:56;6.47;;;1.10;;
78873;SDS011;68250;43.514;1.494;2023-07-13T14:49:28;5.28;;;1.20;;
78873;SDS011;68250;43.514;1.494;2023-07-13T14:52:17;4.50;;;1.10;;
78873;SDS011;68250;43.514;1.494;2023-07-13T14:54:45;3.75;;;1.00;;
78873;SDS011;68250;43.514;1.494;2023-07-13T14:57:18;4.55;;;1.10;;
78873;SDS011;68250;43.514;1.494;2023-07-13T14:59:45;3.65;;;1.23;;
78873;SDS011;68250;43.514;1.494;2023-07-13T15:04:42;3.93;;;1.37;;
78873;SDS011;68250;43.514;1.494;2023-07-13T15:07:09;5.00;;;1.50;;
78873;SDS011;68250;43.514;1.494;2023-07-13T15:09:35;4.38;;;1.38;;
78873;SDS011;68250;43.514;1.494;2023-07-13T15:12:01;4.13;;;1.37;;
78873;SDS011;68250;43.514;1.494;2023-07-13T15:14:27;3.97;;;1.23;;
78873;SDS011;68250;43.514;1.494;2023-07-13T15:16:53;4.97;;;1.30;;
78873;SDS011;68250;43.514;1.494;2023-07-13T15:19:19;3.78;;;1.10;;
78873;SDS011;68250;43.514;1.494;2023-07-13T15:21:46;3.92;;;1.30;;
78873;SDS011;68250;43.514;1.494;2023-07-13T15:24:13;4.70;;;0.80;;
78873;SDS011;68250;43.514;1.494;2023-07-13T15:26:39;4.33;;;1.00;;
78873;SDS011;68250;43.514;1.494;2023-07-13T15:29:05;4.03;;;1.27;;
78873;SDS011;68250;43.514;1.494;2023-07-13T15:31:31;5.95;;;1.33;;